createdAt,value
2022-10-11T00:00:12.051Z,7.43
2022-10-11T00:02:38.976Z,8.27
2022-10-11T00:05:06.632Z,7.93
2022-10-11T00:07:33.677Z,8.23
2022-10-11T00:10:00.686Z,8.77
2022-10-11T00:12:27.640Z,8.77
2022-10-11T00:14:54.596Z,8.23
2022-10-11T00:17:21.617Z,7.70
2022-10-11T00:19:48.557Z,7.77
2022-10-11T00:22:15.519Z,7.67
2022-10-11T00:24:42.655Z,8.33
2022-10-11T00:27:09.663Z,8.03
2022-10-11T00:29:38.306Z,8.07
2022-10-11T00:32:06.109Z,7.40
2022-10-11T00:34:33.138Z,8.70
2022-10-11T00:37:00.054Z,8.23
2022-10-11T00:39:26.972Z,7.50
2022-10-11T00:41:54.344Z,8.43
2022-10-11T00:44:28.167Z,7.07
2022-10-11T00:47:15.426Z,7.60
2022-10-11T00:49:45.830Z,7.80
2022-10-11T00:52:21.709Z,8.33
2022-10-11T00:54:50.085Z,7.37
2022-10-11T00:57:25.137Z,7.80
2022-10-11T00:59:56.170Z,7.70
2022-10-11T01:02:24.601Z,7.67
2022-10-11T01:05:11.378Z,8.40
2022-10-11T01:07:40.718Z,8.47
2022-10-11T01:10:08.069Z,8.87
2022-10-11T01:12:36.349Z,7.33
2022-10-11T01:15:17.425Z,7.63
2022-10-11T01:18:33.357Z,7.87
2022-10-11T01:21:33.030Z,8.57
2022-10-11T01:24:12.055Z,8.83
2022-10-11T01:27:02.306Z,8.27
2022-10-11T01:29:53.461Z,8.27
2022-10-11T01:32:53.647Z,8.10
2022-10-11T01:36:06.377Z,8.60
2022-10-11T01:38:56.690Z,8.10
2022-10-11T01:41:33.751Z,8.00
2022-10-11T01:44:02.369Z,8.63
2022-10-11T01:46:30.576Z,8.43
2022-10-11T01:49:01.146Z,8.17
2022-10-11T01:51:47.508Z,8.37
2022-10-11T01:55:09.977Z,8.23
2022-10-11T01:58:04.769Z,7.77
2022-10-11T02:01:09.284Z,8.00
2022-10-11T02:04:25.366Z,7.87
2022-10-11T02:07:08.689Z,8.03
2022-10-11T02:09:53.774Z,7.77
2022-10-11T02:12:38.449Z,8.27
2022-10-11T02:15:10.612Z,8.87
2022-10-11T02:17:45.525Z,7.97
2022-10-11T02:20:19.007Z,8.77
2022-10-11T02:22:49.973Z,8.40
2022-10-11T02:25:25.199Z,8.10
2022-10-11T02:27:57.281Z,8.20
2022-10-11T02:30:24.205Z,8.53
2022-10-11T02:32:53.041Z,8.53
2022-10-11T02:35:25.195Z,9.20
2022-10-11T02:37:59.347Z,7.87
2022-10-11T02:40:41.475Z,8.73
2022-10-11T02:43:39.519Z,8.93
2022-10-11T02:46:09.205Z,9.17
2022-10-11T02:48:37.479Z,9.20
2022-10-11T02:51:05.300Z,9.13
2022-10-11T02:53:33.594Z,9.10
2022-10-11T02:56:00.533Z,8.90
2022-10-11T02:58:27.495Z,7.97
2022-10-11T03:00:54.431Z,9.17
2022-10-11T03:03:21.349Z,9.60
2022-10-11T03:05:49.032Z,8.53
2022-10-11T03:08:17.431Z,9.13
2022-10-11T03:10:44.623Z,8.93
2022-10-11T03:13:15.963Z,9.00
2022-10-11T03:16:02.385Z,9.30
2022-10-11T03:18:30.751Z,9.50
2022-10-11T03:20:57.745Z,9.10
2022-10-11T03:23:24.693Z,9.77
2022-10-11T03:25:52.217Z,8.67
2022-10-11T03:28:19.801Z,9.20
2022-10-11T03:30:51.274Z,9.27
2022-10-11T03:33:18.742Z,9.13
2022-10-11T03:35:47.241Z,8.97
2022-10-11T03:38:20.807Z,9.50
2022-10-11T03:40:48.370Z,9.33
2022-10-11T03:43:15.572Z,9.40
2022-10-11T03:45:42.634Z,8.80
2022-10-11T03:48:10.700Z,9.67
2022-10-11T03:50:38.187Z,9.40
2022-10-11T03:53:06.959Z,9.60
2022-10-11T03:55:34.129Z,9.33
2022-10-11T03:58:01.137Z,10.37
2022-10-11T04:00:28.146Z,9.43
2022-10-11T04:02:55.082Z,9.83
2022-10-11T04:05:22.056Z,9.83
2022-10-11T04:07:49.085Z,9.13
2022-10-11T04:10:16.116Z,10.67
2022-10-11T04:12:43.820Z,10.23
2022-10-11T04:15:13.428Z,9.27
2022-10-11T04:17:41.304Z,9.10
2022-10-11T04:20:09.255Z,9.80
2022-10-11T04:22:36.384Z,10.40
2022-10-11T04:25:03.607Z,9.90
2022-10-11T04:27:30.765Z,10.60
2022-10-11T04:29:57.716Z,10.53
2022-10-11T04:32:24.719Z,10.50
2022-10-11T04:34:51.717Z,10.50
2022-10-11T04:37:19.276Z,10.23
2022-10-11T04:39:46.175Z,10.67
2022-10-11T04:42:13.221Z,10.10
2022-10-11T04:44:40.183Z,10.30
2022-10-11T04:47:07.139Z,11.63
2022-10-11T04:49:34.080Z,9.63
2022-10-11T04:52:01.154Z,11.30
2022-10-11T04:54:28.066Z,12.03
2022-10-11T04:56:55.064Z,10.93
2022-10-11T04:59:21.968Z,11.13
2022-10-11T05:01:49.038Z,12.43
2022-10-11T05:04:16.076Z,10.37
2022-10-11T05:06:43.274Z,10.97
2022-10-11T05:09:10.286Z,10.93
2022-10-11T05:11:37.281Z,12.77
2022-10-11T05:14:04.258Z,12.27
2022-10-11T05:16:31.211Z,10.80
2022-10-11T05:18:58.170Z,12.37
2022-10-11T05:21:28.259Z,12.27
2022-10-11T05:23:56.757Z,11.97
2022-10-11T05:26:27.744Z,12.13
2022-10-11T05:28:55.603Z,12.13
2022-10-11T05:31:22.691Z,11.60
2022-10-11T05:33:50.033Z,11.73
2022-10-11T05:36:17.270Z,12.03
2022-10-11T05:38:44.764Z,11.53
2022-10-11T05:41:14.968Z,11.40
2022-10-11T05:43:42.335Z,13.43
2022-10-11T05:46:09.425Z,12.80
2022-10-11T05:48:36.710Z,12.53
2022-10-11T05:51:06.682Z,13.10
2022-10-11T05:53:34.172Z,12.20
2022-10-11T05:56:01.106Z,12.80
2022-10-11T05:58:28.638Z,13.27
2022-10-11T06:00:56.962Z,13.90
2022-10-11T06:03:24.331Z,12.43
2022-10-11T06:05:55.768Z,12.57
2022-10-11T06:08:23.813Z,13.90
2022-10-11T06:10:50.981Z,13.35
2022-10-11T06:13:18.535Z,14.17
2022-10-11T06:15:45.465Z,12.40
2022-10-11T06:18:12.372Z,12.30
2022-10-11T06:20:39.306Z,12.68
2022-10-11T06:23:06.315Z,13.25
2022-10-11T06:25:33.285Z,12.70
2022-10-11T06:28:00.225Z,13.32
2022-10-11T06:30:27.246Z,13.18
2022-10-11T06:32:54.224Z,13.90
2022-10-11T06:35:21.185Z,12.50
2022-10-11T06:37:48.075Z,12.82
2022-10-11T06:40:15.190Z,12.80
2022-10-11T06:42:42.115Z,12.77
2022-10-11T06:45:09.584Z,12.85
2022-10-11T06:47:36.490Z,12.80
2022-10-11T06:50:03.727Z,13.85
2022-10-11T06:52:30.653Z,13.52
2022-10-11T06:54:57.600Z,13.23
2022-10-11T06:57:24.546Z,12.20
2022-10-11T06:59:51.555Z,11.68
2022-10-11T07:02:18.451Z,11.75
2022-10-11T07:04:45.385Z,13.48
2022-10-11T07:07:15.223Z,13.15
2022-10-11T07:09:42.209Z,13.18
2022-10-11T07:12:09.303Z,13.18
2022-10-11T07:14:36.324Z,13.00
2022-10-11T07:17:03.569Z,13.27
2022-10-11T07:19:30.623Z,13.35
2022-10-11T07:21:57.783Z,12.73
2022-10-11T07:24:24.866Z,12.60
2022-10-11T07:26:51.815Z,13.10
2022-10-11T07:29:18.878Z,12.70
2022-10-11T07:31:45.906Z,12.18
2022-10-11T07:34:13.128Z,12.48
2022-10-11T07:36:40.309Z,10.95
2022-10-11T07:39:08.843Z,12.98
2022-10-11T07:41:38.850Z,13.07
2022-10-11T07:44:07.656Z,13.35
2022-10-11T07:46:34.603Z,12.23
2022-10-11T07:49:01.537Z,13.07
2022-10-11T07:51:28.493Z,11.98
2022-10-11T07:53:56.949Z,12.15
2022-10-11T07:56:29.161Z,12.38
2022-10-11T07:59:00.299Z,11.25
2022-10-11T08:01:28.651Z,11.95
2022-10-11T08:03:58.961Z,11.43
2022-10-11T08:06:31.736Z,10.23
2022-10-11T08:09:01.167Z,10.52
2022-10-11T08:11:35.401Z,11.73
2022-10-11T08:14:08.507Z,10.65
2022-10-11T08:16:37.244Z,11.60
2022-10-11T08:19:05.192Z,10.80
2022-10-11T08:21:33.015Z,11.00
2022-10-11T08:24:01.595Z,10.82
2022-10-11T08:26:28.641Z,11.38
2022-10-11T08:28:55.666Z,10.45
2022-10-11T08:31:22.789Z,9.50
2022-10-11T08:33:49.768Z,10.90
2022-10-11T08:36:16.762Z,10.20
2022-10-11T08:38:43.981Z,9.63
2022-10-11T08:41:37.232Z,10.57
2022-10-11T08:44:28.051Z,9.20
2022-10-11T08:47:15.765Z,8.68
2022-10-11T08:49:42.985Z,8.23
2022-10-11T08:52:24.607Z,7.88
2022-10-11T08:55:10.169Z,8.75
2022-10-11T08:57:39.124Z,8.57
2022-10-11T09:00:14.489Z,7.50
2022-10-11T09:03:10.949Z,7.25
2022-10-11T09:06:13.297Z,8.65
2022-10-11T09:09:20.392Z,10.70
2022-10-11T09:12:10.729Z,7.82
2022-10-11T09:14:56.589Z,7.75
2022-10-11T09:17:40.157Z,7.72
2022-10-11T09:20:34.020Z,7.80
2022-10-11T09:23:31.811Z,7.60
2022-10-11T09:26:35.283Z,7.60
2022-10-11T09:29:22.744Z,7.10
2022-10-11T09:31:55.951Z,7.55
2022-10-11T09:34:32.355Z,7.20
2022-10-11T09:37:35.394Z,5.38
2022-10-11T09:40:48.538Z,6.32
2022-10-11T09:43:15.471Z,5.20
2022-10-11T09:45:49.241Z,5.55
2022-10-11T09:48:27.352Z,5.20
2022-10-11T09:51:05.149Z,5.40
2022-10-11T09:53:56.038Z,5.78
2022-10-11T09:56:27.555Z,7.10
2022-10-11T09:59:19.543Z,5.05
2022-10-11T10:01:46.707Z,5.40
2022-10-11T10:04:19.303Z,5.32
2022-10-11T10:06:46.284Z,5.05
2022-10-11T10:09:30.155Z,4.10
2022-10-11T10:11:58.147Z,4.07
2022-10-11T10:14:30.711Z,3.75
2022-10-11T10:17:15.664Z,3.55
2022-10-11T10:19:56.760Z,4.55
2022-10-11T10:22:35.751Z,3.47
2022-10-11T10:25:08.081Z,3.67
2022-10-11T10:27:35.294Z,3.67
2022-10-11T10:30:08.035Z,3.67
2022-10-11T10:33:07.137Z,3.80
2022-10-11T10:35:46.903Z,3.63
2022-10-11T10:38:52.175Z,3.15
2022-10-11T10:41:19.578Z,2.75
2022-10-11T10:43:55.745Z,3.08
2022-10-11T10:46:58.807Z,2.85
2022-10-11T10:49:55.383Z,2.75
2022-10-11T10:52:48.163Z,2.92
2022-10-11T10:55:37.561Z,3.10
2022-10-11T10:58:07.424Z,3.30
2022-10-11T11:00:46.197Z,3.88
2022-10-11T11:03:44.869Z,2.88
2022-10-11T11:06:50.897Z,2.88
2022-10-11T11:09:43.722Z,2.35
2022-10-11T11:12:56.918Z,2.10
2022-10-11T11:15:43.198Z,2.17
2022-10-11T11:18:35.907Z,2.38
2022-10-11T11:21:24.085Z,2.42
2022-10-11T11:24:17.186Z,2.58
2022-10-11T11:27:11.622Z,2.30
2022-10-11T11:30:04.770Z,3.55
2022-10-11T11:32:49.683Z,2.58
2022-10-11T11:35:44.009Z,2.22
2022-10-11T11:38:29.818Z,1.80
2022-10-11T11:41:05.258Z,2.33
2022-10-11T11:43:39.498Z,2.25
2022-10-11T11:46:25.155Z,2.42
2022-10-11T11:48:54.365Z,2.47
2022-10-11T11:51:41.119Z,2.13
2022-10-11T11:54:35.001Z,2.58
2022-10-11T11:57:35.909Z,2.83
2022-10-11T12:00:12.803Z,2.45
2022-10-11T12:02:58.949Z,2.45
2022-10-11T12:05:33.880Z,2.28
2022-10-11T12:08:31.801Z,2.25
2022-10-11T12:11:02.480Z,2.22
2022-10-11T12:13:37.090Z,1.98
2022-10-11T12:16:09.682Z,1.98
2022-10-11T12:19:01.135Z,2.45
2022-10-11T12:21:40.339Z,2.03
2022-10-11T12:24:23.815Z,2.72
2022-10-11T12:26:57.929Z,2.05
2022-10-11T12:29:50.996Z,2.00
2022-10-11T12:32:26.952Z,2.58
2022-10-11T12:35:31.793Z,2.50
2022-10-11T12:38:25.692Z,3.38
2022-10-11T12:41:09.739Z,4.43
2022-10-11T12:44:24.777Z,7.00
2022-10-11T12:46:53.561Z,3.90
2022-10-11T12:49:42.639Z,3.22
2022-10-11T12:52:28.421Z,3.78
2022-10-11T12:55:29.881Z,2.50
2022-10-11T12:58:09.215Z,2.65
2022-10-11T13:00:51.110Z,3.13
2022-10-11T13:03:39.619Z,2.67
2022-10-11T13:06:27.047Z,3.20
2022-10-11T13:09:03.941Z,2.78
2022-10-11T13:11:36.853Z,2.17
2022-10-11T13:14:22.985Z,2.58
2022-10-11T13:17:19.448Z,2.10
2022-10-11T13:19:50.846Z,2.40
2022-10-11T13:22:22.843Z,2.22
2022-10-11T13:24:50.095Z,2.13
2022-10-11T13:27:27.310Z,2.95
2022-10-11T13:30:00.476Z,3.15
2022-10-11T13:32:31.083Z,4.20
2022-10-11T13:35:07.320Z,4.43
2022-10-11T13:37:45.285Z,4.40
2022-10-11T13:40:19.957Z,5.60
2022-10-11T13:42:49.386Z,4.32
2022-10-11T13:45:23.716Z,3.42
2022-10-11T13:47:52.909Z,2.97
2022-10-11T13:50:32.398Z,3.50
2022-10-11T13:53:08.310Z,3.72
2022-10-11T13:55:55.996Z,2.75
2022-10-11T13:58:40.278Z,2.50
2022-10-11T14:01:20.022Z,2.00
2022-10-11T14:04:00.835Z,2.00
2022-10-11T14:06:58.083Z,1.92
2022-10-11T14:09:37.275Z,2.38
2022-10-11T14:12:35.642Z,2.20
2022-10-11T14:15:26.061Z,2.33
2022-10-11T14:17:53.370Z,2.40
2022-10-11T14:20:30.887Z,1.90
2022-10-11T14:23:00.203Z,2.60
2022-10-11T14:25:27.205Z,2.13
2022-10-11T14:27:55.120Z,1.95
2022-10-11T14:30:26.628Z,2.40
2022-10-11T14:32:58.027Z,2.40
2022-10-11T14:35:28.046Z,2.20
2022-10-11T14:37:55.137Z,2.22
2022-10-11T14:40:26.169Z,3.00
2022-10-11T14:42:53.343Z,2.53
2022-10-11T14:45:21.384Z,3.13
2022-10-11T14:47:48.582Z,2.03
2022-10-11T14:50:42.530Z,2.97
2022-10-11T14:53:10.652Z,2.40
2022-10-11T14:55:39.520Z,2.00
2022-10-11T14:58:09.048Z,2.20
2022-10-11T15:00:37.117Z,2.53
2022-10-11T15:03:05.241Z,2.33
2022-10-11T15:05:34.275Z,1.92
2022-10-11T15:08:06.124Z,2.65
2022-10-11T15:10:41.546Z,2.70
2022-10-11T15:13:09.419Z,2.10
2022-10-11T15:15:40.963Z,2.90
2022-10-11T15:18:12.525Z,3.35
2022-10-11T15:20:43.594Z,3.88
2022-10-11T15:23:12.199Z,3.40
2022-10-11T15:25:40.907Z,3.15
2022-10-11T15:28:19.764Z,2.80
2022-10-11T15:30:46.729Z,4.00
2022-10-11T15:33:13.668Z,3.85
2022-10-11T15:35:40.619Z,4.03
2022-10-11T15:38:16.119Z,4.05
2022-10-11T15:40:43.440Z,3.53
2022-10-11T15:43:10.391Z,3.80
2022-10-11T15:45:37.497Z,4.47
2022-10-11T15:48:04.867Z,3.08
2022-10-11T15:50:36.804Z,3.65
2022-10-11T15:53:17.863Z,3.72
2022-10-11T15:55:51.834Z,3.67
2022-10-11T15:58:40.865Z,3.70
2022-10-11T16:01:15.555Z,4.00
2022-10-11T16:03:43.270Z,4.68
2022-10-11T16:06:11.280Z,3.88
2022-10-11T16:08:38.788Z,3.42
2022-10-11T16:11:08.792Z,5.20
2022-10-11T16:13:36.300Z,4.68
2022-10-11T16:16:07.131Z,4.75
2022-10-11T16:18:35.809Z,4.53
2022-10-11T16:21:11.107Z,4.57
2022-10-11T16:23:38.946Z,4.85
2022-10-11T16:26:12.037Z,4.93
2022-10-11T16:28:39.150Z,4.95
2022-10-11T16:31:09.412Z,4.93
2022-10-11T16:33:45.678Z,5.10
2022-10-11T16:36:35.154Z,5.55
2022-10-11T16:39:15.789Z,5.57
2022-10-11T16:41:43.133Z,5.93
2022-10-11T16:44:20.195Z,5.85
2022-10-11T16:46:48.548Z,6.13
2022-10-11T16:49:23.028Z,5.93
2022-10-11T16:51:55.964Z,6.50
2022-10-11T16:54:23.088Z,7.00
2022-10-11T16:56:50.598Z,6.57
2022-10-11T16:59:18.385Z,6.57
2022-10-11T17:01:45.941Z,7.35
2022-10-11T17:04:13.856Z,6.53
2022-10-11T17:06:43.862Z,7.03
2022-10-11T17:09:12.012Z,7.60
2022-10-11T17:11:39.034Z,7.88
2022-10-11T17:14:06.556Z,6.50
2022-10-11T17:16:34.714Z,6.60
2022-10-11T17:19:02.636Z,7.32
2022-10-11T17:21:30.018Z,6.03
2022-10-11T17:23:57.473Z,6.50
2022-10-11T17:26:26.622Z,7.10
2022-10-11T17:28:56.589Z,7.43
2022-10-11T17:31:24.637Z,6.55
2022-10-11T17:33:53.201Z,7.22
2022-10-11T17:36:31.911Z,6.53
2022-10-11T17:39:06.422Z,7.47
2022-10-11T17:41:33.422Z,7.82
2022-10-11T17:44:01.812Z,10.65
2022-10-11T17:46:32.572Z,12.52
2022-10-11T17:49:06.632Z,9.75
2022-10-11T17:51:36.016Z,8.60
2022-10-11T17:54:04.022Z,7.78
2022-10-11T17:56:36.629Z,7.22
2022-10-11T17:59:05.217Z,7.03
2022-10-11T18:01:32.265Z,6.78
2022-10-11T18:04:03.078Z,6.57
2022-10-11T18:06:33.735Z,6.10
2022-10-11T18:09:03.477Z,6.28
2022-10-11T18:11:30.937Z,5.90
2022-10-11T18:13:58.078Z,7.60
2022-10-11T18:16:28.675Z,6.93
2022-10-11T18:18:57.522Z,7.17
2022-10-11T18:21:33.643Z,6.57
2022-10-11T18:24:03.533Z,6.78
2022-10-11T18:26:31.040Z,6.73
2022-10-11T18:28:59.013Z,6.57
2022-10-11T18:31:29.989Z,6.25
2022-10-11T18:33:57.635Z,5.87
2022-10-11T18:36:28.888Z,6.17
2022-10-11T18:39:00.295Z,6.33
2022-10-11T18:41:31.616Z,6.70
2022-10-11T18:44:03.315Z,6.70
2022-10-11T18:46:31.090Z,5.63
2022-10-11T18:49:01.305Z,6.30
2022-10-11T18:51:32.375Z,6.47
2022-10-11T18:53:59.933Z,6.15
2022-10-11T18:56:29.145Z,5.90
2022-10-11T18:58:58.672Z,6.97
2022-10-11T19:01:35.556Z,6.17
2022-10-11T19:04:04.556Z,5.93
2022-10-11T19:06:36.209Z,6.83
2022-10-11T19:09:07.686Z,5.87
2022-10-11T19:11:34.641Z,7.00
2022-10-11T19:14:11.072Z,9.23
2022-10-11T19:16:41.814Z,7.63
2022-10-11T19:19:11.154Z,6.47
2022-10-11T19:21:39.078Z,6.70
2022-10-11T19:24:06.536Z,6.53
2022-10-11T19:26:38.748Z,6.30
2022-10-11T19:29:10.061Z,7.13
2022-10-11T19:31:41.907Z,6.97
2022-10-11T19:34:10.315Z,7.50
2022-10-11T19:36:37.314Z,8.00
2022-10-11T19:39:06.145Z,8.10
2022-10-11T19:41:33.518Z,7.77
2022-10-11T19:44:00.525Z,7.53
2022-10-11T19:46:49.927Z,9.50
2022-10-11T19:49:17.754Z,10.50
2022-10-11T19:51:44.879Z,11.17
2022-10-11T19:54:14.401Z,10.30
2022-10-11T19:56:42.498Z,12.07
2022-10-11T19:59:12.133Z,10.73
2022-10-11T20:01:39.986Z,10.90
2022-10-11T20:04:27.380Z,11.40
2022-10-11T20:06:58.307Z,10.90
2022-10-11T20:09:29.929Z,10.77
2022-10-11T20:11:58.063Z,12.53
2022-10-11T20:14:25.535Z,10.57
2022-10-11T20:16:52.779Z,10.77
2022-10-11T20:19:21.479Z,11.40
2022-10-11T20:21:49.811Z,12.07
2022-10-11T20:24:16.736Z,12.03
2022-10-11T20:26:43.659Z,11.10
2022-10-11T20:29:10.586Z,14.03
2022-10-11T20:31:38.853Z,12.37
2022-10-11T20:34:07.312Z,13.47
2022-10-11T20:36:36.381Z,12.53
2022-10-11T20:39:05.183Z,12.90
2022-10-11T20:41:45.151Z,12.57
2022-10-11T20:44:13.236Z,13.87
2022-10-11T20:46:40.519Z,14.00
2022-10-11T20:49:12.135Z,12.57
2022-10-11T20:51:41.564Z,15.47
2022-10-11T20:54:10.609Z,14.60
2022-10-11T20:56:38.497Z,12.37
2022-10-11T20:59:06.710Z,14.00
2022-10-11T21:01:40.680Z,13.43
2022-10-11T21:04:14.450Z,14.47
2022-10-11T21:06:41.431Z,14.47
2022-10-11T21:09:10.232Z,13.17
2022-10-11T21:11:39.644Z,13.93
2022-10-11T21:14:06.809Z,15.13
2022-10-11T21:16:34.714Z,15.80
2022-10-11T21:19:02.470Z,14.73
2022-10-11T21:21:30.309Z,15.00
2022-10-11T21:24:00.357Z,15.37
2022-10-11T21:26:28.532Z,15.87
2022-10-11T21:28:55.519Z,14.70
2022-10-11T21:31:23.665Z,16.13
2022-10-11T21:33:51.054Z,16.97
2022-10-11T21:36:21.047Z,16.93
2022-10-11T21:38:49.468Z,15.37
2022-10-11T21:41:23.315Z,15.03
2022-10-11T21:43:50.579Z,16.27
2022-10-11T21:47:01.062Z,15.63
2022-10-11T21:49:19.917Z,15.83
2022-10-11T21:51:46.854Z,15.60
2022-10-11T21:54:13.930Z,16.07
2022-10-11T21:56:40.941Z,15.70
2022-10-11T21:59:11.165Z,16.10
2022-10-11T22:01:40.630Z,15.80
2022-10-11T22:04:07.883Z,15.97
2022-10-11T22:06:35.783Z,16.30
2022-10-11T22:09:03.863Z,17.57
2022-10-11T22:11:31.343Z,17.13
2022-10-11T22:13:58.878Z,17.17
2022-10-11T22:16:25.804Z,16.97
2022-10-11T22:18:54.047Z,17.43
2022-10-11T22:21:23.585Z,17.00
2022-10-11T22:23:52.971Z,17.23
2022-10-11T22:26:29.803Z,17.13
2022-10-11T22:28:58.557Z,17.57
2022-10-11T22:31:25.754Z,16.40
2022-10-11T22:33:58.868Z,17.50
2022-10-11T22:36:27.234Z,17.57
2022-10-11T22:38:54.801Z,16.97
2022-10-11T22:41:22.218Z,16.33
2022-10-11T22:43:49.411Z,16.63
2022-10-11T22:46:16.870Z,18.07
2022-10-11T22:48:43.920Z,17.37
2022-10-11T22:51:10.868Z,16.13
2022-10-11T22:53:38.408Z,17.77
2022-10-11T22:56:05.622Z,16.33
2022-10-11T22:58:32.575Z,17.13
2022-10-11T23:01:11.707Z,16.00
2022-10-11T23:03:38.784Z,16.23
2022-10-11T23:06:06.298Z,16.77
2022-10-11T23:08:33.466Z,16.53
2022-10-11T23:11:08.115Z,17.87
2022-10-11T23:13:35.813Z,17.60
2022-10-11T23:16:11.616Z,15.93
2022-10-11T23:18:39.181Z,17.23
2022-10-11T23:21:07.007Z,16.70
2022-10-11T23:23:34.805Z,16.60
2022-10-11T23:26:22.036Z,16.80
2022-10-11T23:28:53.132Z,17.13
2022-10-11T23:31:20.260Z,16.40
2022-10-11T23:33:48.468Z,16.93
2022-10-11T23:36:22.015Z,17.07
2022-10-11T23:38:54.961Z,17.53
2022-10-11T23:41:24.123Z,16.67
2022-10-11T23:43:51.385Z,15.80
2022-10-11T23:46:18.392Z,16.73
2022-10-11T23:48:45.636Z,16.33
2022-10-11T23:51:14.243Z,15.77
2022-10-11T23:53:41.528Z,14.70
2022-10-11T23:56:09.842Z,14.87
2022-10-11T23:58:36.822Z,14.83
